sensor_id;sensor_type;location;lat;lon;timestamp;P1;durP1;ratioP1;P2;durP2;ratioP2
65039;SDS011;51606;45.000;38.612;2024-02-04T00:04:08;0.55;;;0.55;;
65039;SDS011;51606;45.000;38.612;2024-02-04T00:06:33;0.75;;;0.52;;
65039;SDS011;51606;45.000;38.612;2024-02-04T00:08:59;0.73;;;0.73;;
65039;SDS011;51606;45.000;38.612;2024-02-04T00:11:26;1.42;;;1.30;;
65039;SDS011;51606;45.000;38.612;2024-02-04T00:13:52;2.35;;;0.60;;
65039;SDS011;51606;45.000;38.612;2024-02-04T00:16:19;0.40;;;0.40;;
65039;SDS011;51606;45.000;38.612;2024-02-04T00:18:45;0.45;;;0.45;;
65039;SDS011;51606;45.000;38.612;2024-02-04T00:21:11;0.20;;;0.20;;
65039;SDS011;51606;45.000;38.612;2024-02-04T00:23:38;0.38;;;0.38;;
65039;SDS011;51606;45.000;38.612;2024-02-04T00:26:04;1.20;;;0.55;;
65039;SDS011;51606;45.000;38.612;2024-02-04T00:28:31;11.13;;;0.52;;
65039;SDS011;51606;45.000;38.612;2024-02-04T00:30:57;0.30;;;0.30;;
65039;SDS011;51606;45.000;38.612;2024-02-04T00:33:24;0.10;;;0.10;;
65039;SDS011;51606;45.000;38.612;2024-02-04T00:35:51;0.65;;;0.30;;
65039;SDS011;51606;45.000;38.612;2024-02-04T00:38:17;0.40;;;0.40;;
65039;SDS011;51606;45.000;38.612;2024-02-04T00:40:44;0.10;;;0.10;;
65039;SDS011;51606;45.000;38.612;2024-02-04T00:43:10;0.28;;;0.28;;
65039;SDS011;51606;45.000;38.612;2024-02-04T00:45:37;0.57;;;0.20;;
65039;SDS011;51606;45.000;38.612;2024-02-04T00:48:03;0.70;;;0.57;;
65039;SDS011;51606;45.000;38.612;2024-02-04T00:50:30;0.22;;;0.22;;
65039;SDS011;51606;45.000;38.612;2024-02-04T00:52:56;2.92;;;1.02;;
65039;SDS011;51606;45.000;38.612;2024-02-04T00:55:23;0.40;;;0.40;;
65039;SDS011;51606;45.000;38.612;2024-02-04T00:57:49;0.17;;;0.13;;
65039;SDS011;51606;45.000;38.612;2024-02-04T01:00:16;0.68;;;0.68;;
65039;SDS011;51606;45.000;38.612;2024-02-04T01:02:43;0.13;;;0.13;;
65039;SDS011;51606;45.000;38.612;2024-02-04T01:05:09;0.40;;;0.40;;
65039;SDS011;51606;45.000;38.612;2024-02-04T01:07:36;0.00;;;0.00;;
65039;SDS011;51606;45.000;38.612;2024-02-04T01:10:02;0.30;;;0.30;;
65039;SDS011;51606;45.000;38.612;2024-02-04T01:12:29;0.17;;;0.10;;
65039;SDS011;51606;45.000;38.612;2024-02-04T01:14:55;0.52;;;0.38;;
65039;SDS011;51606;45.000;38.612;2024-02-04T01:17:22;0.20;;;0.20;;
65039;SDS011;51606;45.000;38.612;2024-02-04T01:19:48;0.95;;;0.43;;
65039;SDS011;51606;45.000;38.612;2024-02-04T01:22:15;0.40;;;0.38;;
65039;SDS011;51606;45.000;38.612;2024-02-04T01:24:41;1.88;;;0.82;;
65039;SDS011;51606;45.000;38.612;2024-02-04T01:27:08;0.20;;;0.20;;
65039;SDS011;51606;45.000;38.612;2024-02-04T01:29:35;0.63;;;0.30;;
65039;SDS011;51606;45.000;38.612;2024-02-04T01:32:01;0.57;;;0.38;;
65039;SDS011;51606;45.000;38.612;2024-02-04T01:34:27;0.85;;;0.38;;
65039;SDS011;51606;45.000;38.612;2024-02-04T01:36:54;0.20;;;0.20;;
65039;SDS011;51606;45.000;38.612;2024-02-04T01:39:21;0.85;;;0.65;;
65039;SDS011;51606;45.000;38.612;2024-02-04T01:41:47;0.45;;;0.43;;
65039;SDS011;51606;45.000;38.612;2024-02-04T01:44:13;0.30;;;0.30;;
65039;SDS011;51606;45.000;38.612;2024-02-04T01:46:42;0.47;;;0.47;;
65039;SDS011;51606;45.000;38.612;2024-02-04T01:49:09;0.28;;;0.28;;
65039;SDS011;51606;45.000;38.612;2024-02-04T01:51:36;0.60;;;0.57;;
65039;SDS011;51606;45.000;38.612;2024-02-04T01:54:03;0.45;;;0.35;;
65039;SDS011;51606;45.000;38.612;2024-02-04T01:56:30;0.47;;;0.38;;
65039;SDS011;51606;45.000;38.612;2024-02-04T01:58:57;0.40;;;0.40;;
65039;SDS011;51606;45.000;38.612;2024-02-04T02:01:26;0.70;;;0.57;;
65039;SDS011;51606;45.000;38.612;2024-02-04T02:03:53;0.40;;;0.40;;
65039;SDS011;51606;45.000;38.612;2024-02-04T02:06:21;0.80;;;0.68;;
65039;SDS011;51606;45.000;38.612;2024-02-04T02:08:47;0.90;;;0.75;;
65039;SDS011;51606;45.000;38.612;2024-02-04T02:11:27;0.25;;;0.25;;
65039;SDS011;51606;45.000;38.612;2024-02-04T02:14:03;0.25;;;0.25;;
65039;SDS011;51606;45.000;38.612;2024-02-04T02:16:33;0.25;;;0.25;;
65039;SDS011;51606;45.000;38.612;2024-02-04T02:19:22;1.65;;;1.30;;
65039;SDS011;51606;45.000;38.612;2024-02-04T02:22:02;0.20;;;0.20;;
65039;SDS011;51606;45.000;38.612;2024-02-04T05:46:22;1.48;;;0.80;;
65039;SDS011;51606;45.000;38.612;2024-02-04T05:48:49;0.10;;;0.10;;
65039;SDS011;51606;45.000;38.612;2024-02-04T05:51:15;0.15;;;0.15;;
65039;SDS011;51606;45.000;38.612;2024-02-04T05:53:42;0.10;;;0.10;;
65039;SDS011;51606;45.000;38.612;2024-02-04T05:56:08;0.28;;;0.28;;
65039;SDS011;51606;45.000;38.612;2024-02-04T05:58:34;0.28;;;0.28;;
65039;SDS011;51606;45.000;38.612;2024-02-04T06:01:02;0.93;;;0.38;;
65039;SDS011;51606;45.000;38.612;2024-02-04T06:03:28;2.42;;;0.80;;
65039;SDS011;51606;45.000;38.612;2024-02-04T06:05:55;0.43;;;0.43;;
65039;SDS011;51606;45.000;38.612;2024-02-04T06:08:21;0.38;;;0.38;;
65039;SDS011;51606;45.000;38.612;2024-02-04T06:10:47;1.85;;;0.80;;
65039;SDS011;51606;45.000;38.612;2024-02-04T06:13:14;0.15;;;0.15;;
65039;SDS011;51606;45.000;38.612;2024-02-04T06:15:40;1.30;;;0.30;;
65039;SDS011;51606;45.000;38.612;2024-02-04T06:18:07;0.52;;;0.52;;
65039;SDS011;51606;45.000;38.612;2024-02-04T06:20:33;0.10;;;0.10;;
65039;SDS011;51606;45.000;38.612;2024-02-04T06:22:59;0.43;;;0.30;;
65039;SDS011;51606;45.000;38.612;2024-02-04T06:25:26;0.20;;;0.20;;
65039;SDS011;51606;45.000;38.612;2024-02-04T06:27:52;0.32;;;0.30;;
65039;SDS011;51606;45.000;38.612;2024-02-04T06:30:19;0.43;;;0.43;;
65039;SDS011;51606;45.000;38.612;2024-02-04T06:32:47;0.60;;;0.35;;
65039;SDS011;51606;45.000;38.612;2024-02-04T06:35:15;0.15;;;0.15;;
65039;SDS011;51606;45.000;38.612;2024-02-04T06:37:41;3.03;;;1.17;;
65039;SDS011;51606;45.000;38.612;2024-02-04T06:40:10;0.20;;;0.10;;
65039;SDS011;51606;45.000;38.612;2024-02-04T06:42:37;1.55;;;0.52;;
65039;SDS011;51606;45.000;38.612;2024-02-04T06:45:03;3.63;;;0.75;;
65039;SDS011;51606;45.000;38.612;2024-02-04T06:47:30;2.33;;;0.70;;
65039;SDS011;51606;45.000;38.612;2024-02-04T06:49:56;0.20;;;0.17;;
65039;SDS011;51606;45.000;38.612;2024-02-04T06:52:22;0.77;;;0.55;;
65039;SDS011;51606;45.000;38.612;2024-02-04T06:54:49;0.22;;;0.22;;
65039;SDS011;51606;45.000;38.612;2024-02-04T06:57:15;0.52;;;0.52;;
65039;SDS011;51606;45.000;38.612;2024-02-04T06:59:42;0.63;;;0.40;;
65039;SDS011;51606;45.000;38.612;2024-02-04T07:02:08;0.15;;;0.15;;
65039;SDS011;51606;45.000;38.612;2024-02-04T07:04:34;0.30;;;0.20;;
65039;SDS011;51606;45.000;38.612;2024-02-04T07:07:01;1.33;;;1.08;;
65039;SDS011;51606;45.000;38.612;2024-02-04T07:09:27;0.55;;;0.47;;
65039;SDS011;51606;45.000;38.612;2024-02-04T07:11:53;0.88;;;0.80;;
65039;SDS011;51606;45.000;38.612;2024-02-04T07:14:20;1.77;;;0.68;;
65039;SDS011;51606;45.000;38.612;2024-02-04T07:16:46;0.40;;;0.40;;
65039;SDS011;51606;45.000;38.612;2024-02-04T07:19:13;4.13;;;1.05;;
65039;SDS011;51606;45.000;38.612;2024-02-04T07:21:39;0.40;;;0.40;;
65039;SDS011;51606;45.000;38.612;2024-02-04T07:24:06;0.65;;;0.50;;
65039;SDS011;51606;45.000;38.612;2024-02-04T07:26:32;1.00;;;0.80;;
65039;SDS011;51606;45.000;38.612;2024-02-04T07:28:58;0.50;;;0.50;;
65039;SDS011;51606;45.000;38.612;2024-02-04T07:31:25;5.05;;;1.48;;
65039;SDS011;51606;45.000;38.612;2024-02-04T07:33:51;4.93;;;1.27;;
65039;SDS011;51606;45.000;38.612;2024-02-04T07:36:17;5.47;;;1.65;;
65039;SDS011;51606;45.000;38.612;2024-02-04T07:38:44;9.75;;;0.85;;
65039;SDS011;51606;45.000;38.612;2024-02-04T07:41:12;3.78;;;1.23;;
65039;SDS011;51606;45.000;38.612;2024-02-04T07:43:40;1.77;;;0.95;;
65039;SDS011;51606;45.000;38.612;2024-02-04T07:46:07;1.48;;;0.73;;
65039;SDS011;51606;45.000;38.612;2024-02-04T07:48:34;2.75;;;1.10;;
65039;SDS011;51606;45.000;38.612;2024-02-04T07:51:00;4.03;;;1.08;;
65039;SDS011;51606;45.000;38.612;2024-02-04T07:53:27;1.65;;;0.80;;
65039;SDS011;51606;45.000;38.612;2024-02-04T07:55:53;0.68;;;0.68;;
65039;SDS011;51606;45.000;38.612;2024-02-04T07:58:19;2.10;;;0.68;;
65039;SDS011;51606;45.000;38.612;2024-02-04T08:00:46;6.55;;;1.40;;
65039;SDS011;51606;45.000;38.612;2024-02-04T08:03:12;0.25;;;0.25;;
65039;SDS011;51606;45.000;38.612;2024-02-04T08:05:38;5.85;;;1.13;;
65039;SDS011;51606;45.000;38.612;2024-02-04T08:08:05;0.60;;;0.60;;
65039;SDS011;51606;45.000;38.612;2024-02-04T08:10:32;0.57;;;0.50;;
65039;SDS011;51606;45.000;38.612;2024-02-04T08:12:58;0.57;;;0.55;;
65039;SDS011;51606;45.000;38.612;2024-02-04T08:15:24;0.47;;;0.40;;
65039;SDS011;51606;45.000;38.612;2024-02-04T08:17:51;7.47;;;0.63;;
65039;SDS011;51606;45.000;38.612;2024-02-04T08:20:18;1.52;;;1.02;;
65039;SDS011;51606;45.000;38.612;2024-02-04T08:22:44;1.30;;;1.20;;
65039;SDS011;51606;45.000;38.612;2024-02-04T08:25:11;0.75;;;0.50;;
65039;SDS011;51606;45.000;38.612;2024-02-04T08:27:37;0.40;;;0.40;;
65039;SDS011;51606;45.000;38.612;2024-02-04T08:30:04;0.52;;;0.50;;
65039;SDS011;51606;45.000;38.612;2024-02-04T08:32:31;3.60;;;1.13;;
65039;SDS011;51606;45.000;38.612;2024-02-04T08:34:57;0.77;;;0.77;;
65039;SDS011;51606;45.000;38.612;2024-02-04T08:37:24;1.85;;;1.05;;
65039;SDS011;51606;45.000;38.612;2024-02-04T08:39:50;7.95;;;1.48;;
65039;SDS011;51606;45.000;38.612;2024-02-04T08:42:16;3.95;;;1.13;;
65039;SDS011;51606;45.000;38.612;2024-02-04T08:44:44;4.70;;;1.63;;
65039;SDS011;51606;45.000;38.612;2024-02-04T08:47:10;0.40;;;0.35;;
65039;SDS011;51606;45.000;38.612;2024-02-04T08:49:40;4.38;;;0.65;;
65039;SDS011;51606;45.000;38.612;2024-02-04T08:52:06;0.32;;;0.25;;
65039;SDS011;51606;45.000;38.612;2024-02-04T08:54:32;0.30;;;0.30;;
65039;SDS011;51606;45.000;38.612;2024-02-04T08:56:59;0.13;;;0.10;;
65039;SDS011;51606;45.000;38.612;2024-02-04T08:59:25;0.40;;;0.40;;
65039;SDS011;51606;45.000;38.612;2024-02-04T09:01:51;0.55;;;0.43;;
65039;SDS011;51606;45.000;38.612;2024-02-04T09:04:18;0.28;;;0.28;;
65039;SDS011;51606;45.000;38.612;2024-02-04T09:06:44;0.30;;;0.30;;
65039;SDS011;51606;45.000;38.612;2024-02-04T09:09:10;1.15;;;0.40;;
65039;SDS011;51606;45.000;38.612;2024-02-04T09:11:37;0.25;;;0.22;;
65039;SDS011;51606;45.000;38.612;2024-02-04T09:55:17;2.33;;;0.75;;
65039;SDS011;51606;45.000;38.612;2024-02-04T09:57:47;1.98;;;0.70;;
65039;SDS011;51606;45.000;38.612;2024-02-04T10:00:13;0.95;;;0.60;;
65039;SDS011;51606;45.000;38.612;2024-02-04T10:02:41;0.50;;;0.50;;
65039;SDS011;51606;45.000;38.612;2024-02-04T10:05:08;1.23;;;0.40;;
65039;SDS011;51606;45.000;38.612;2024-02-04T10:07:36;0.30;;;0.30;;
65039;SDS011;51606;45.000;38.612;2024-02-04T10:10:04;0.50;;;0.50;;
65039;SDS011;51606;45.000;38.612;2024-02-04T10:12:32;1.08;;;0.82;;
65039;SDS011;51606;45.000;38.612;2024-02-04T10:14:58;1.27;;;0.82;;
65039;SDS011;51606;45.000;38.612;2024-02-04T10:17:25;1.23;;;0.65;;
65039;SDS011;51606;45.000;38.612;2024-02-04T10:19:52;0.52;;;0.52;;
65039;SDS011;51606;45.000;38.612;2024-02-04T10:22:18;0.30;;;0.30;;
65039;SDS011;51606;45.000;38.612;2024-02-04T10:24:44;1.63;;;0.73;;
65039;SDS011;51606;45.000;38.612;2024-02-04T10:27:16;0.40;;;0.40;;
65039;SDS011;51606;45.000;38.612;2024-02-04T10:29:43;0.75;;;0.50;;
65039;SDS011;51606;45.000;38.612;2024-02-04T10:32:09;1.00;;;0.47;;
65039;SDS011;51606;45.000;38.612;2024-02-04T10:34:36;1.33;;;0.52;;
65039;SDS011;51606;45.000;38.612;2024-02-04T10:37:03;1.02;;;0.50;;
65039;SDS011;51606;45.000;38.612;2024-02-04T10:39:31;2.78;;;1.55;;
65039;SDS011;51606;45.000;38.612;2024-02-04T10:42:00;1.58;;;0.70;;
65039;SDS011;51606;45.000;38.612;2024-02-04T10:44:29;0.93;;;0.50;;
65039;SDS011;51606;45.000;38.612;2024-02-04T10:47:05;0.43;;;0.43;;
65039;SDS011;51606;45.000;38.612;2024-02-04T10:49:33;1.02;;;0.77;;
65039;SDS011;51606;45.000;38.612;2024-02-04T10:52:04;1.33;;;1.05;;
65039;SDS011;51606;45.000;38.612;2024-02-04T10:54:33;2.40;;;2.08;;
65039;SDS011;51606;45.000;38.612;2024-02-04T10:57:03;1.30;;;0.70;;
65039;SDS011;51606;45.000;38.612;2024-02-04T10:59:34;4.95;;;1.38;;
65039;SDS011;51606;45.000;38.612;2024-02-04T11:02:01;4.55;;;1.08;;
65039;SDS011;51606;45.000;38.612;2024-02-04T11:04:30;4.32;;;0.85;;
65039;SDS011;51606;45.000;38.612;2024-02-04T11:07:00;1.83;;;0.63;;
65039;SDS011;51606;45.000;38.612;2024-02-04T11:09:27;1.63;;;0.85;;
65039;SDS011;51606;45.000;38.612;2024-02-04T11:11:55;1.33;;;1.10;;
65039;SDS011;51606;45.000;38.612;2024-02-04T11:14:24;1.25;;;0.90;;
65039;SDS011;51606;45.000;38.612;2024-02-04T11:17:11;2.40;;;1.13;;
65039;SDS011;51606;45.000;38.612;2024-02-04T11:22:40;1.00;;;0.95;;
65039;SDS011;51606;45.000;38.612;2024-02-04T11:27:45;1.98;;;1.10;;
65039;SDS011;51606;45.000;38.612;2024-02-04T11:30:14;2.50;;;1.30;;
65039;SDS011;51606;45.000;38.612;2024-02-04T11:32:41;2.72;;;1.00;;
65039;SDS011;51606;45.000;38.612;2024-02-04T11:35:07;0.70;;;0.70;;
65039;SDS011;51606;45.000;38.612;2024-02-04T11:37:37;10.20;;;1.30;;
65039;SDS011;51606;45.000;38.612;2024-02-04T11:40:13;1.95;;;0.93;;
65039;SDS011;51606;45.000;38.612;2024-02-04T11:42:45;2.20;;;1.40;;
65039;SDS011;51606;45.000;38.612;2024-02-04T11:45:12;1.33;;;1.00;;
65039;SDS011;51606;45.000;38.612;2024-02-04T11:47:39;0.75;;;0.63;;
65039;SDS011;51606;45.000;38.612;2024-02-04T11:50:06;0.93;;;0.88;;
65039;SDS011;51606;45.000;38.612;2024-02-04T11:52:35;1.05;;;0.75;;
65039;SDS011;51606;45.000;38.612;2024-02-04T11:55:02;2.47;;;1.30;;
65039;SDS011;51606;45.000;38.612;2024-02-04T11:57:29;2.88;;;1.40;;
65039;SDS011;51606;45.000;38.612;2024-02-04T11:59:57;1.80;;;1.25;;
65039;SDS011;51606;45.000;38.612;2024-02-04T12:02:24;1.33;;;0.93;;
65039;SDS011;51606;45.000;38.612;2024-02-04T12:04:51;2.88;;;1.52;;
65039;SDS011;51606;45.000;38.612;2024-02-04T12:07:18;2.20;;;1.27;;
65039;SDS011;51606;45.000;38.612;2024-02-04T12:09:45;1.38;;;0.77;;
65039;SDS011;51606;45.000;38.612;2024-02-04T12:12:13;0.63;;;0.60;;
65039;SDS011;51606;45.000;38.612;2024-02-04T12:14:40;0.60;;;0.60;;
65039;SDS011;51606;45.000;38.612;2024-02-04T12:17:11;2.95;;;0.47;;
65039;SDS011;51606;45.000;38.612;2024-02-04T12:19:39;1.15;;;0.60;;
65039;SDS011;51606;45.000;38.612;2024-02-04T12:22:05;4.72;;;1.55;;
65039;SDS011;51606;45.000;38.612;2024-02-04T12:24:37;11.65;;;1.20;;
65039;SDS011;51606;45.000;38.612;2024-02-04T12:27:04;2.85;;;1.27;;
65039;SDS011;51606;45.000;38.612;2024-02-04T12:29:31;3.55;;;1.42;;
65039;SDS011;51606;45.000;38.612;2024-02-04T12:31:59;5.95;;;1.45;;
65039;SDS011;51606;45.000;38.612;2024-02-04T12:34:25;3.63;;;1.40;;
65039;SDS011;51606;45.000;38.612;2024-02-04T12:36:59;2.30;;;0.85;;
65039;SDS011;51606;45.000;38.612;2024-02-04T12:39:26;1.23;;;1.02;;
65039;SDS011;51606;45.000;38.612;2024-02-04T12:41:53;2.45;;;0.80;;
65039;SDS011;51606;45.000;38.612;2024-02-04T12:44:19;4.18;;;1.35;;
65039;SDS011;51606;45.000;38.612;2024-02-04T12:46:51;1.90;;;1.13;;
65039;SDS011;51606;45.000;38.612;2024-02-04T12:49:18;6.63;;;1.55;;
65039;SDS011;51606;45.000;38.612;2024-02-04T12:51:47;1.23;;;0.52;;
65039;SDS011;51606;45.000;38.612;2024-02-04T13:05:58;1.88;;;0.60;;
65039;SDS011;51606;45.000;38.612;2024-02-04T13:08:25;0.80;;;0.50;;
65039;SDS011;51606;45.000;38.612;2024-02-04T13:10:56;3.17;;;1.65;;
65039;SDS011;51606;45.000;38.612;2024-02-04T13:13:22;4.70;;;2.83;;
65039;SDS011;51606;45.000;38.612;2024-02-04T13:15:54;7.22;;;4.47;;
65039;SDS011;51606;45.000;38.612;2024-02-04T13:18:21;3.05;;;2.15;;
65039;SDS011;51606;45.000;38.612;2024-02-04T13:20:47;10.43;;;5.10;;
65039;SDS011;51606;45.000;38.612;2024-02-04T13:23:14;5.18;;;1.67;;
65039;SDS011;51606;45.000;38.612;2024-02-04T13:25:40;4.38;;;2.40;;
65039;SDS011;51606;45.000;38.612;2024-02-04T13:28:07;11.00;;;1.40;;
65039;SDS011;51606;45.000;38.612;2024-02-04T13:30:33;5.80;;;1.63;;
65039;SDS011;51606;45.000;38.612;2024-02-04T13:32:59;12.75;;;4.68;;
65039;SDS011;51606;45.000;38.612;2024-02-04T13:35:27;1.27;;;1.13;;
65039;SDS011;51606;45.000;38.612;2024-02-04T13:37:54;2.45;;;1.60;;
65039;SDS011;51606;45.000;38.612;2024-02-04T13:40:21;3.30;;;1.77;;
65039;SDS011;51606;45.000;38.612;2024-02-04T13:42:49;5.03;;;1.90;;
65039;SDS011;51606;45.000;38.612;2024-02-04T13:45:16;3.30;;;2.78;;
65039;SDS011;51606;45.000;38.612;2024-02-04T13:47:43;3.65;;;2.22;;
65039;SDS011;51606;45.000;38.612;2024-02-04T13:50:09;2.03;;;1.63;;
65039;SDS011;51606;45.000;38.612;2024-02-04T13:52:36;7.93;;;1.50;;
65039;SDS011;51606;45.000;38.612;2024-02-04T13:55:04;9.85;;;5.10;;
65039;SDS011;51606;45.000;38.612;2024-02-04T13:57:30;14.18;;;8.35;;
65039;SDS011;51606;45.000;38.612;2024-02-04T13:59:58;15.43;;;4.68;;
65039;SDS011;51606;45.000;38.612;2024-02-04T14:02:24;3.30;;;2.50;;
65039;SDS011;51606;45.000;38.612;2024-02-04T14:04:52;21.38;;;12.52;;
65039;SDS011;51606;45.000;38.612;2024-02-04T14:07:18;19.42;;;10.90;;
65039;SDS011;51606;45.000;38.612;2024-02-04T14:09:45;5.47;;;3.55;;
65039;SDS011;51606;45.000;38.612;2024-02-04T14:12:11;3.85;;;2.63;;
65039;SDS011;51606;45.000;38.612;2024-02-04T14:14:39;14.95;;;5.72;;
65039;SDS011;51606;45.000;38.612;2024-02-04T14:17:06;7.20;;;3.38;;
65039;SDS011;51606;45.000;38.612;2024-02-04T14:19:32;11.68;;;3.70;;
65039;SDS011;51606;45.000;38.612;2024-02-04T14:21:58;17.27;;;10.02;;
65039;SDS011;51606;45.000;38.612;2024-02-04T14:24:25;18.70;;;9.07;;
65039;SDS011;51606;45.000;38.612;2024-02-04T14:27:00;6.57;;;3.42;;
65039;SDS011;51606;45.000;38.612;2024-02-04T14:29:26;11.70;;;5.75;;
65039;SDS011;51606;45.000;38.612;2024-02-04T14:31:53;6.90;;;3.08;;
65039;SDS011;51606;45.000;38.612;2024-02-04T14:34:21;4.97;;;3.05;;
65039;SDS011;51606;45.000;38.612;2024-02-04T14:36:47;2.15;;;1.75;;
65039;SDS011;51606;45.000;38.612;2024-02-04T14:39:14;9.38;;;4.15;;
65039;SDS011;51606;45.000;38.612;2024-02-04T14:41:41;2.47;;;1.90;;
65039;SDS011;51606;45.000;38.612;2024-02-04T14:44:08;6.85;;;3.90;;
65039;SDS011;51606;45.000;38.612;2024-02-04T14:46:37;7.00;;;4.38;;
65039;SDS011;51606;45.000;38.612;2024-02-04T14:49:04;6.25;;;2.33;;
65039;SDS011;51606;45.000;38.612;2024-02-04T14:51:31;9.13;;;5.68;;
65039;SDS011;51606;45.000;38.612;2024-02-04T14:53:57;9.27;;;6.57;;
65039;SDS011;51606;45.000;38.612;2024-02-04T14:56:24;3.75;;;2.25;;
65039;SDS011;51606;45.000;38.612;2024-02-04T14:58:50;8.82;;;5.82;;
65039;SDS011;51606;45.000;38.612;2024-02-04T15:01:17;3.15;;;2.05;;
65039;SDS011;51606;45.000;38.612;2024-02-04T15:03:43;2.35;;;1.33;;
65039;SDS011;51606;45.000;38.612;2024-02-04T15:06:09;7.75;;;3.63;;
65039;SDS011;51606;45.000;38.612;2024-02-04T15:08:36;3.10;;;2.10;;
65039;SDS011;51606;45.000;38.612;2024-02-04T15:11:02;3.63;;;1.58;;
65039;SDS011;51606;45.000;38.612;2024-02-04T15:13:29;2.55;;;1.52;;
65039;SDS011;51606;45.000;38.612;2024-02-04T15:15:55;3.53;;;1.77;;
65039;SDS011;51606;45.000;38.612;2024-02-04T15:18:22;3.08;;;2.10;;
65039;SDS011;51606;45.000;38.612;2024-02-04T15:20:49;3.58;;;1.65;;
65039;SDS011;51606;45.000;38.612;2024-02-04T15:23:16;2.65;;;1.85;;
65039;SDS011;51606;45.000;38.612;2024-02-04T15:25:42;1.08;;;0.90;;
65039;SDS011;51606;45.000;38.612;2024-02-04T15:28:09;1.92;;;1.15;;
65039;SDS011;51606;45.000;38.612;2024-02-04T15:30:39;2.88;;;1.80;;
65039;SDS011;51606;45.000;38.612;2024-02-04T15:33:05;0.75;;;0.75;;
65039;SDS011;51606;45.000;38.612;2024-02-04T15:35:32;2.40;;;0.85;;
65039;SDS011;51606;45.000;38.612;2024-02-04T15:37:59;1.60;;;0.73;;
65039;SDS011;51606;45.000;38.612;2024-02-04T15:40:26;0.68;;;0.68;;
65039;SDS011;51606;45.000;38.612;2024-02-04T15:42:53;4.95;;;1.30;;
65039;SDS011;51606;45.000;38.612;2024-02-04T15:45:19;1.05;;;1.00;;
65039;SDS011;51606;45.000;38.612;2024-02-04T15:47:49;1.13;;;0.88;;
65039;SDS011;51606;45.000;38.612;2024-02-04T15:50:19;2.53;;;1.50;;
65039;SDS011;51606;45.000;38.612;2024-02-04T15:52:47;1.70;;;0.85;;
65039;SDS011;51606;45.000;38.612;2024-02-04T15:55:15;5.32;;;1.73;;
65039;SDS011;51606;45.000;38.612;2024-02-04T15:57:49;1.23;;;0.52;;
65039;SDS011;51606;45.000;38.612;2024-02-04T16:00:17;4.45;;;1.15;;
65039;SDS011;51606;45.000;38.612;2024-02-04T16:02:48;3.17;;;1.00;;
65039;SDS011;51606;45.000;38.612;2024-02-04T16:05:15;9.77;;;1.95;;
65039;SDS011;51606;45.000;38.612;2024-02-04T16:07:43;1.00;;;0.90;;
65039;SDS011;51606;45.000;38.612;2024-02-04T16:10:10;3.50;;;1.02;;
65039;SDS011;51606;45.000;38.612;2024-02-04T16:12:37;1.42;;;0.75;;
65039;SDS011;51606;45.000;38.612;2024-02-04T16:15:05;0.70;;;0.70;;
65039;SDS011;51606;45.000;38.612;2024-02-04T16:17:37;5.93;;;0.90;;
65039;SDS011;51606;45.000;38.612;2024-02-04T16:20:07;1.00;;;0.85;;
65039;SDS011;51606;45.000;38.612;2024-02-04T16:22:34;1.05;;;0.70;;
65039;SDS011;51606;45.000;38.612;2024-02-04T16:25:00;0.43;;;0.43;;
65039;SDS011;51606;45.000;38.612;2024-02-04T16:27:27;1.10;;;0.75;;
65039;SDS011;51606;45.000;38.612;2024-02-04T16:29:53;5.00;;;1.23;;
65039;SDS011;51606;45.000;38.612;2024-02-04T16:32:20;0.30;;;0.30;;
65039;SDS011;51606;45.000;38.612;2024-02-04T16:46:22;1.38;;;0.93;;
65039;SDS011;51606;45.000;38.612;2024-02-04T16:48:49;0.60;;;0.45;;
65039;SDS011;51606;45.000;38.612;2024-02-04T16:51:15;2.05;;;1.85;;
65039;SDS011;51606;45.000;38.612;2024-02-04T16:53:41;1.88;;;0.57;;
65039;SDS011;51606;45.000;38.612;2024-02-04T16:56:08;0.43;;;0.43;;
65039;SDS011;51606;45.000;38.612;2024-02-04T16:58:34;0.43;;;0.35;;
65039;SDS011;51606;45.000;38.612;2024-02-04T17:01:01;1.67;;;0.90;;
65039;SDS011;51606;45.000;38.612;2024-02-04T17:03:27;1.38;;;1.00;;
65039;SDS011;51606;45.000;38.612;2024-02-04T17:05:54;1.77;;;1.05;;
65039;SDS011;51606;45.000;38.612;2024-02-04T17:08:21;0.43;;;0.43;;
65039;SDS011;51606;45.000;38.612;2024-02-04T17:10:48;2.20;;;1.08;;
65039;SDS011;51606;45.000;38.612;2024-02-04T17:13:15;0.28;;;0.28;;
65039;SDS011;51606;45.000;38.612;2024-02-04T17:15:41;0.68;;;0.55;;
65039;SDS011;51606;45.000;38.612;2024-02-04T17:18:08;0.57;;;0.50;;
65039;SDS011;51606;45.000;38.612;2024-02-04T17:20:42;1.23;;;1.10;;
65039;SDS011;51606;45.000;38.612;2024-02-04T17:23:13;4.22;;;1.40;;
65039;SDS011;51606;45.000;38.612;2024-02-04T17:25:43;2.00;;;1.05;;
65039;SDS011;51606;45.000;38.612;2024-02-04T17:28:10;2.13;;;0.75;;
65039;SDS011;51606;45.000;38.612;2024-02-04T17:30:39;1.20;;;0.70;;
65039;SDS011;51606;45.000;38.612;2024-02-04T17:33:05;0.77;;;0.57;;
65039;SDS011;51606;45.000;38.612;2024-02-04T17:35:32;0.73;;;0.57;;
65039;SDS011;51606;45.000;38.612;2024-02-04T17:37:58;1.27;;;0.65;;
65039;SDS011;51606;45.000;38.612;2024-02-04T17:40:29;0.70;;;0.60;;
65039;SDS011;51606;45.000;38.612;2024-02-04T17:42:58;0.75;;;0.70;;
65039;SDS011;51606;45.000;38.612;2024-02-04T17:45:25;0.47;;;0.40;;
65039;SDS011;51606;45.000;38.612;2024-02-04T17:47:52;4.03;;;0.55;;
65039;SDS011;51606;45.000;38.612;2024-02-04T17:50:18;0.70;;;0.70;;
65039;SDS011;51606;45.000;38.612;2024-02-04T17:52:44;3.22;;;1.00;;
65039;SDS011;51606;45.000;38.612;2024-02-04T17:55:11;0.45;;;0.45;;
65039;SDS011;51606;45.000;38.612;2024-02-04T17:57:37;6.60;;;0.68;;
65039;SDS011;51606;45.000;38.612;2024-02-04T18:00:04;0.30;;;0.20;;
65039;SDS011;51606;45.000;38.612;2024-02-04T18:02:32;0.45;;;0.45;;
65039;SDS011;51606;45.000;38.612;2024-02-04T18:05:00;0.52;;;0.40;;
65039;SDS011;51606;45.000;38.612;2024-02-04T18:07:26;0.75;;;0.40;;
65039;SDS011;51606;45.000;38.612;2024-02-04T18:09:53;0.47;;;0.45;;
65039;SDS011;51606;45.000;38.612;2024-02-04T18:12:19;1.23;;;0.50;;
65039;SDS011;51606;45.000;38.612;2024-02-04T18:14:46;0.60;;;0.60;;
65039;SDS011;51606;45.000;38.612;2024-02-04T18:17:12;0.38;;;0.35;;
65039;SDS011;51606;45.000;38.612;2024-02-04T18:19:39;0.45;;;0.32;;
65039;SDS011;51606;45.000;38.612;2024-02-04T18:22:07;0.98;;;0.70;;
65039;SDS011;51606;45.000;38.612;2024-02-04T18:24:34;1.42;;;0.60;;
65039;SDS011;51606;45.000;38.612;2024-02-04T18:27:03;0.40;;;0.40;;
65039;SDS011;51606;45.000;38.612;2024-02-04T18:29:31;1.33;;;0.57;;
65039;SDS011;51606;45.000;38.612;2024-02-04T18:31:57;0.38;;;0.35;;
65039;SDS011;51606;45.000;38.612;2024-02-04T18:34:24;0.82;;;0.55;;
65039;SDS011;51606;45.000;38.612;2024-02-04T18:36:50;0.40;;;0.40;;
65039;SDS011;51606;45.000;38.612;2024-02-04T18:39:16;0.43;;;0.40;;
65039;SDS011;51606;45.000;38.612;2024-02-04T18:41:42;0.40;;;0.40;;
65039;SDS011;51606;45.000;38.612;2024-02-04T18:44:12;0.43;;;0.40;;
65039;SDS011;51606;45.000;38.612;2024-02-04T18:46:41;0.52;;;0.50;;
65039;SDS011;51606;45.000;38.612;2024-02-04T18:49:13;1.33;;;0.63;;
65039;SDS011;51606;45.000;38.612;2024-02-04T18:51:40;0.45;;;0.35;;
65039;SDS011;51606;45.000;38.612;2024-02-04T18:54:08;0.20;;;0.20;;
65039;SDS011;51606;45.000;38.612;2024-02-04T18:56:34;1.38;;;0.68;;
65039;SDS011;51606;45.000;38.612;2024-02-04T18:59:06;1.65;;;0.63;;
65039;SDS011;51606;45.000;38.612;2024-02-04T19:01:35;0.40;;;0.30;;
65039;SDS011;51606;45.000;38.612;2024-02-04T19:04:05;3.67;;;0.73;;
65039;SDS011;51606;45.000;38.612;2024-02-04T19:06:32;0.38;;;0.38;;
65039;SDS011;51606;45.000;38.612;2024-02-04T19:08:59;0.28;;;0.28;;